createdAt,value
2019-01-21T00:01:29.355Z,-0.72
2019-01-21T00:03:58.901Z,-0.61
2019-01-21T00:06:28.430Z,-0.73
2019-01-21T00:08:57.845Z,-0.74
2019-01-21T00:11:27.252Z,-0.74
2019-01-21T00:13:56.812Z,-0.81
2019-01-21T00:16:26.255Z,-0.97
2019-01-21T00:18:55.873Z,-0.95
2019-01-21T00:21:25.365Z,-0.94
2019-01-21T00:23:54.812Z,-0.87
2019-01-21T00:26:24.235Z,-0.88
2019-01-21T00:28:54.065Z,-0.89
2019-01-21T00:31:23.811Z,-0.98
2019-01-21T00:33:53.814Z,-1.00
2019-01-21T00:36:23.941Z,-1.03
2019-01-21T00:38:53.870Z,-1.00
2019-01-21T00:41:23.887Z,-0.95
2019-01-21T00:43:53.988Z,-0.97
2019-01-21T00:46:23.942Z,-0.96
2019-01-21T00:48:53.814Z,-0.95
2019-01-21T00:51:23.954Z,-0.82
2019-01-21T00:53:54.083Z,-0.80
2019-01-21T00:56:24.009Z,-0.75
2019-01-21T00:58:54.131Z,-0.77
2019-01-21T01:01:24.045Z,-0.73
2019-01-21T01:03:54.021Z,-0.81
2019-01-21T01:06:24.181Z,-0.69
2019-01-21T01:08:54.003Z,-0.53
2019-01-21T01:11:24.203Z,-0.64
2019-01-21T01:13:54.319Z,-0.74
2019-01-21T01:16:24.073Z,-0.76
2019-01-21T01:18:54.090Z,-0.74
2019-01-21T01:21:24.168Z,-0.67
2019-01-21T01:23:54.568Z,-0.74
2019-01-21T01:26:24.151Z,-0.67
2019-01-21T01:28:54.208Z,-0.64
2019-01-21T01:31:24.208Z,-0.80
2019-01-21T01:33:54.111Z,-0.72
2019-01-21T01:36:24.331Z,-0.74
2019-01-21T01:38:54.092Z,-0.63
2019-01-21T01:41:24.154Z,-0.51
2019-01-21T01:43:54.238Z,-0.44
2019-01-21T01:46:24.440Z,-0.41
2019-01-21T01:48:54.110Z,-0.58
2019-01-21T01:51:24.318Z,-0.61
2019-01-21T01:53:54.096Z,-0.60
2019-01-21T01:56:24.183Z,-0.64
2019-01-21T01:58:54.334Z,-0.67
2019-01-21T02:01:24.236Z,-0.66
2019-01-21T02:03:54.162Z,-0.59
2019-01-21T02:06:24.250Z,-0.72
2019-01-21T02:08:54.361Z,-0.62
2019-01-21T02:11:24.350Z,-0.66
2019-01-21T02:13:54.422Z,-0.63
2019-01-21T02:16:24.299Z,-0.62
2019-01-21T02:18:54.161Z,-0.63
2019-01-21T02:21:26.091Z,-0.57
2019-01-21T02:24:01.832Z,-0.73
2019-01-21T02:26:31.433Z,-0.59
2019-01-21T02:29:05.022Z,-0.62
2019-01-21T02:32:11.170Z,-0.53
2019-01-21T02:35:30.604Z,-0.64
2019-01-21T02:38:42.629Z,-0.66
2019-01-21T02:41:37.010Z,-0.73
2019-01-21T02:44:52.658Z,-0.90
2019-01-21T02:47:47.787Z,-1.09
2019-01-21T02:50:47.847Z,-1.31
2019-01-21T02:53:42.753Z,-1.22
2019-01-21T02:56:41.819Z,-1.23
2019-01-21T02:59:48.205Z,-1.27
2019-01-21T03:02:57.020Z,-1.12
2019-01-21T03:05:58.345Z,-1.10
2019-01-21T03:09:08.786Z,-1.26
2019-01-21T03:12:08.676Z,-1.16
2019-01-21T03:15:25.164Z,-1.02
2019-01-21T03:18:40.206Z,-1.10
2019-01-21T03:21:54.854Z,-1.18
2019-01-21T03:25:01.303Z,-1.19
2019-01-21T03:28:10.843Z,-1.24
2019-01-21T03:31:29.839Z,-1.26
2019-01-21T03:34:26.096Z,-1.25
2019-01-21T03:37:34.999Z,-1.31
2019-01-21T03:40:27.153Z,-1.27
2019-01-21T03:43:29.099Z,-1.29
2019-01-21T03:46:28.709Z,-1.31
2019-01-21T03:49:08.052Z,-1.28
2019-01-21T03:52:21.562Z,-1.20
2019-01-21T03:55:00.098Z,-1.09
2019-01-21T03:58:14.380Z,-1.20
2019-01-21T04:00:53.216Z,-1.21
2019-01-21T04:04:05.644Z,-1.34
2019-01-21T04:07:02.515Z,-1.27
2019-01-21T04:10:15.670Z,-1.40
2019-01-21T04:13:14.788Z,-1.47
2019-01-21T04:16:23.847Z,-1.42
2019-01-21T04:19:33.317Z,-1.47
2019-01-21T04:22:31.670Z,-1.52
2019-01-21T04:25:36.713Z,-1.50
2019-01-21T04:28:40.772Z,-1.51
2019-01-21T04:31:38.643Z,-1.51
2019-01-21T04:34:44.404Z,-1.46
2019-01-21T04:37:43.154Z,-1.60
2019-01-21T04:41:14.874Z,-1.63
2019-01-21T04:44:37.059Z,-1.73
2019-01-21T04:47:31.889Z,-1.76
2019-01-21T04:50:45.699Z,-1.75
2019-01-21T04:54:03.393Z,-1.95
2019-01-21T04:57:32.057Z,-1.99
2019-01-21T05:00:32.405Z,-2.09
2019-01-21T05:03:55.775Z,-2.22
2019-01-21T05:06:55.815Z,-2.21
2019-01-21T05:10:04.509Z,-2.11
2019-01-21T05:13:13.434Z,-2.16
2019-01-21T05:16:18.854Z,-2.16
2019-01-21T05:19:19.207Z,-2.15
2019-01-21T05:22:33.172Z,-2.18
2019-01-21T05:25:30.446Z,-2.22
2019-01-21T05:28:35.218Z,-2.20
2019-01-21T05:31:40.585Z,-2.30
2019-01-21T05:34:51.028Z,-2.27
2019-01-21T05:38:07.778Z,-2.26
2019-01-21T05:41:19.064Z,-2.37
2019-01-21T05:44:15.071Z,-2.49
2019-01-21T05:47:17.627Z,-2.47
2019-01-21T05:50:34.073Z,-2.43
2019-01-21T05:53:46.898Z,-2.32
2019-01-21T05:56:57.051Z,-2.28
2019-01-21T06:00:02.941Z,-2.41
2019-01-21T06:03:16.595Z,-2.47
2019-01-21T06:06:26.432Z,-2.45
2019-01-21T06:09:26.802Z,-2.44
2019-01-21T06:12:40.052Z,-2.49
2019-01-21T06:15:37.404Z,-2.51
2019-01-21T06:18:57.706Z,-2.51
2019-01-21T06:22:02.396Z,-2.47
2019-01-21T06:25:21.963Z,-2.47
2019-01-21T06:28:32.260Z,-2.47
2019-01-21T06:31:39.116Z,-2.57
2019-01-21T06:34:38.285Z,-2.58
2019-01-21T06:37:33.837Z,-2.60
2019-01-21T06:40:42.289Z,-2.50
2019-01-21T06:44:14.300Z,-2.48
2019-01-21T06:47:11.717Z,-2.45
2019-01-21T06:50:18.279Z,-2.53
2019-01-21T06:53:26.956Z,-2.45
2019-01-21T06:56:24.870Z,-2.45
2019-01-21T06:59:25.950Z,-2.34
2019-01-21T07:02:45.428Z,-2.24
2019-01-21T07:05:36.323Z,-2.21
2019-01-21T07:08:32.137Z,-2.26
2019-01-21T07:11:22.097Z,-2.25
2019-01-21T07:14:14.871Z,-2.24
2019-01-21T07:17:06.207Z,-2.11
2019-01-21T07:20:19.520Z,-2.03
2019-01-21T07:23:15.423Z,-1.97
2019-01-21T07:26:23.247Z,-1.84
2019-01-21T07:29:25.462Z,-1.68
2019-01-21T07:32:39.508Z,-1.79
2019-01-21T07:35:50.035Z,-1.80
2019-01-21T07:39:04.601Z,-1.84
2019-01-21T07:41:43.899Z,-1.61
2019-01-21T07:45:05.351Z,-1.54
2019-01-21T07:48:11.934Z,-1.46
2019-01-21T07:51:34.709Z,-1.33
2019-01-21T07:54:48.115Z,-1.32
2019-01-21T07:57:52.914Z,-1.45
2019-01-21T08:01:07.505Z,-1.51
2019-01-21T08:04:36.270Z,-1.56
2019-01-21T08:07:24.570Z,-1.45
2019-01-21T08:10:33.512Z,-1.39
2019-01-21T08:13:34.624Z,-1.32
2019-01-21T08:16:46.923Z,-1.21
2019-01-21T08:20:02.131Z,-1.06
2019-01-21T08:23:30.826Z,-0.89
2019-01-21T08:26:31.593Z,-0.92
2019-01-21T08:29:40.650Z,-0.91
2019-01-21T08:32:59.983Z,-0.90
2019-01-21T08:36:02.283Z,-0.68
2019-01-21T08:38:58.792Z,-0.61
2019-01-21T08:42:10.882Z,-0.75
2019-01-21T08:45:33.788Z,-0.76
2019-01-21T08:48:54.262Z,-0.60
2019-01-21T08:52:00.107Z,-0.37
2019-01-21T08:54:53.359Z,-0.36
2019-01-21T08:58:07.407Z,-0.31
2019-01-21T09:01:06.668Z,-0.25
2019-01-21T09:04:35.256Z,-0.39
2019-01-21T09:07:32.587Z,-0.37
2019-01-21T09:10:23.310Z,-0.38
2019-01-21T09:13:52.216Z,-0.29
2019-01-21T09:16:44.932Z,-0.18
2019-01-21T09:19:56.250Z,-0.13
2019-01-21T09:23:11.662Z,0.13
2019-01-21T09:26:27.177Z,-0.04
2019-01-21T09:29:20.592Z,0.15
2019-01-21T09:32:39.033Z,0.10
2019-01-21T09:35:50.873Z,0.05
2019-01-21T09:38:48.322Z,0.21
2019-01-21T09:41:44.449Z,0.33
2019-01-21T09:44:26.426Z,0.41
2019-01-21T09:46:54.216Z,0.51
2019-01-21T09:49:23.888Z,0.63
2019-01-21T09:52:14.274Z,0.62
2019-01-21T09:54:46.163Z,0.63
2019-01-21T09:57:28.787Z,0.65
2019-01-21T10:00:00.946Z,0.74
2019-01-21T10:02:52.716Z,0.55
2019-01-21T10:05:24.297Z,0.61
2019-01-21T10:08:25.825Z,0.93
2019-01-21T10:11:30.895Z,1.02
2019-01-21T10:14:29.506Z,0.73
2019-01-21T10:17:40.150Z,1.08
2019-01-21T10:20:33.586Z,1.35
2019-01-21T10:23:55.644Z,1.46
2019-01-21T10:26:55.221Z,1.46
2019-01-21T10:30:06.875Z,1.25
2019-01-21T10:33:15.116Z,1.27
2019-01-21T10:36:27.121Z,1.27
2019-01-21T10:39:26.760Z,1.33
2019-01-21T10:42:39.844Z,1.34
2019-01-21T10:45:52.397Z,1.28
2019-01-21T10:49:00.338Z,1.15
2019-01-21T10:52:10.836Z,1.24
2019-01-21T10:54:54.234Z,1.33
2019-01-21T10:58:08.281Z,1.28
2019-01-21T11:01:32.610Z,1.39
2019-01-21T11:04:38.151Z,1.33
2019-01-21T11:08:03.450Z,1.32
2019-01-21T11:11:20.207Z,0.99
2019-01-21T11:14:27.579Z,0.92
2019-01-21T11:17:40.711Z,0.98
2019-01-21T11:20:52.239Z,1.21
2019-01-21T11:24:01.718Z,1.23
2019-01-21T11:27:10.334Z,1.11
2019-01-21T11:29:52.749Z,1.43
2019-01-21T11:33:18.595Z,1.47
2019-01-21T11:36:31.989Z,1.44
2019-01-21T11:39:16.467Z,1.70
2019-01-21T11:42:34.383Z,1.74
2019-01-21T11:45:48.378Z,1.80
2019-01-21T11:49:01.799Z,1.56
2019-01-21T11:52:22.180Z,1.61
2019-01-21T11:55:15.690Z,1.63
2019-01-21T11:58:37.933Z,1.66
2019-01-21T12:01:30.602Z,1.91
2019-01-21T12:04:37.750Z,2.00
2019-01-21T12:07:24.407Z,1.84
2019-01-21T12:10:22.227Z,2.05
2019-01-21T12:13:23.038Z,2.11
2019-01-21T12:16:33.355Z,2.20
2019-01-21T12:19:29.249Z,2.08
2019-01-21T12:22:54.599Z,1.87
2019-01-21T12:25:35.110Z,1.92
2019-01-21T12:28:44.900Z,2.17
2019-01-21T12:32:07.357Z,2.18
2019-01-21T12:35:11.536Z,2.43
2019-01-21T12:38:24.781Z,2.33
2019-01-21T12:41:21.756Z,2.61
2019-01-21T12:44:27.750Z,2.67
2019-01-21T12:47:20.477Z,2.68
2019-01-21T12:50:14.790Z,2.88
2019-01-21T12:53:03.484Z,2.92
2019-01-21T12:56:04.960Z,2.63
2019-01-21T12:59:08.765Z,2.77
2019-01-21T13:01:55.497Z,2.73
2019-01-21T13:04:41.797Z,2.68
2019-01-21T13:07:29.711Z,2.82
2019-01-21T13:10:29.960Z,2.75
2019-01-21T13:13:33.706Z,2.91
2019-01-21T13:16:24.541Z,2.68
2019-01-21T13:19:30.134Z,2.71
2019-01-21T13:22:26.773Z,2.71
2019-01-21T13:25:43.013Z,2.84
2019-01-21T13:28:36.643Z,2.90
2019-01-21T13:31:43.144Z,2.97
2019-01-21T13:34:53.167Z,2.90
2019-01-21T13:37:40.413Z,2.92
2019-01-21T13:40:35.729Z,2.82
2019-01-21T13:43:22.911Z,2.89
2019-01-21T13:46:42.500Z,2.83
2019-01-21T13:49:42.655Z,2.68
2019-01-21T13:52:43.950Z,2.64
2019-01-21T13:55:42.362Z,2.60
2019-01-21T13:58:52.546Z,2.63
2019-01-21T14:01:38.567Z,2.57
2019-01-21T14:04:55.141Z,2.69
2019-01-21T14:07:52.128Z,2.62
2019-01-21T14:11:26.651Z,2.60
2019-01-21T14:14:18.005Z,2.69
2019-01-21T14:17:01.013Z,2.69
2019-01-21T14:19:54.743Z,2.61
2019-01-21T14:22:46.119Z,2.54
2019-01-21T14:25:42.367Z,2.46
2019-01-21T14:29:07.679Z,2.46
2019-01-21T14:32:11.229Z,2.31
2019-01-21T14:35:22.311Z,2.39
2019-01-21T14:38:48.430Z,2.26
2019-01-21T14:41:56.265Z,2.12
2019-01-21T14:45:05.994Z,2.19
2019-01-21T14:48:31.513Z,2.09
2019-01-21T14:51:46.041Z,1.99
2019-01-21T14:54:30.688Z,2.14
2019-01-21T14:57:39.270Z,2.22
2019-01-21T15:00:49.622Z,2.33
2019-01-21T15:04:00.327Z,2.38
2019-01-21T15:07:17.995Z,2.41
2019-01-21T15:10:27.853Z,2.33
2019-01-21T15:13:41.372Z,2.37
2019-01-21T15:16:42.541Z,2.22
2019-01-21T15:19:54.411Z,2.16
2019-01-21T15:22:58.964Z,2.22
2019-01-21T15:25:57.083Z,2.29
2019-01-21T15:29:04.506Z,2.24
2019-01-21T15:31:53.654Z,2.19
2019-01-21T15:34:31.774Z,2.17
2019-01-21T15:37:25.081Z,2.24
2019-01-21T15:40:34.671Z,2.24
2019-01-21T15:43:31.202Z,2.25
2019-01-21T15:46:18.482Z,2.29
2019-01-21T15:49:47.058Z,2.05
2019-01-21T15:52:34.492Z,1.97
2019-01-21T15:55:29.974Z,2.11
2019-01-21T15:58:33.521Z,2.08
2019-01-21T16:01:38.693Z,1.99
2019-01-21T16:04:46.950Z,2.03
2019-01-21T16:07:44.921Z,2.11
2019-01-21T16:10:56.772Z,2.19
2019-01-21T16:13:42.959Z,2.30
2019-01-21T16:16:48.185Z,2.22
2019-01-21T16:19:40.598Z,2.13
2019-01-21T16:22:35.918Z,2.01
2019-01-21T16:25:55.545Z,1.88
2019-01-21T16:29:37.273Z,1.95
2019-01-21T16:32:14.153Z,1.83
2019-01-21T16:34:58.815Z,1.83
2019-01-21T16:38:14.701Z,1.84
2019-01-21T16:41:19.847Z,1.89
2019-01-21T16:43:52.871Z,2.14
2019-01-21T16:46:22.763Z,2.25
2019-01-21T16:48:52.390Z,2.27
2019-01-21T16:51:21.880Z,2.29
2019-01-21T16:53:51.263Z,2.36
2019-01-21T16:56:21.201Z,2.32
2019-01-21T16:58:50.685Z,2.40
2019-01-21T17:01:20.071Z,2.52
2019-01-21T17:03:49.605Z,2.51
2019-01-21T17:06:19.109Z,2.54
2019-01-21T17:08:48.997Z,2.62
2019-01-21T17:11:18.625Z,2.65
2019-01-21T17:13:48.374Z,2.73
2019-01-21T17:16:19.969Z,2.73
2019-01-21T17:18:49.168Z,2.83
2019-01-21T17:21:18.578Z,2.87
2019-01-21T17:23:47.986Z,2.93
2019-01-21T17:26:17.647Z,2.94
2019-01-21T17:28:47.192Z,2.85
2019-01-21T17:31:16.717Z,2.88
2019-01-21T17:33:46.440Z,3.02
2019-01-21T17:36:15.944Z,3.07
2019-01-21T17:38:45.338Z,2.94
2019-01-21T17:41:15.558Z,3.04
2019-01-21T17:43:44.969Z,3.18
2019-01-21T17:46:14.401Z,2.96
2019-01-21T17:48:43.958Z,3.01
2019-01-21T17:51:13.507Z,3.14
2019-01-21T17:53:43.168Z,3.22
2019-01-21T17:56:12.824Z,3.77
2019-01-21T17:58:42.321Z,3.71
2019-01-21T18:01:11.814Z,3.64
2019-01-21T18:03:41.716Z,3.58
2019-01-21T18:06:11.401Z,3.50
2019-01-21T18:08:40.927Z,3.48
2019-01-21T18:11:10.886Z,3.36
2019-01-21T18:13:40.356Z,3.33
2019-01-21T18:16:11.827Z,3.20
2019-01-21T18:18:43.302Z,3.25
2019-01-21T18:21:12.891Z,3.27
2019-01-21T18:23:43.366Z,3.32
2019-01-21T18:26:12.955Z,3.36
2019-01-21T18:28:42.394Z,3.41
2019-01-21T18:31:11.810Z,3.24
2019-01-21T18:33:41.308Z,3.25
2019-01-21T18:36:13.475Z,3.22
2019-01-21T18:38:44.680Z,3.18
2019-01-21T18:41:15.456Z,3.13
2019-01-21T18:43:46.854Z,3.15
2019-01-21T18:46:16.286Z,3.15
2019-01-21T18:48:47.009Z,3.28
2019-01-21T18:51:17.556Z,3.24
2019-01-21T18:53:48.196Z,3.27
2019-01-21T18:56:17.643Z,3.30
2019-01-21T18:58:48.129Z,3.26
2019-01-21T19:01:17.706Z,3.33
2019-01-21T19:03:47.240Z,3.31
2019-01-21T19:06:18.554Z,3.30
2019-01-21T19:08:49.577Z,3.12
2019-01-21T19:11:20.499Z,2.97
2019-01-21T19:13:50.846Z,2.96
2019-01-21T19:16:20.512Z,3.00
2019-01-21T19:18:49.933Z,3.15
2019-01-21T19:21:19.323Z,3.14
2019-01-21T19:23:50.666Z,3.08
2019-01-21T19:26:27.438Z,2.97
2019-01-21T19:28:58.120Z,2.87
2019-01-21T19:31:29.117Z,2.94
2019-01-21T19:33:58.614Z,2.89
2019-01-21T19:36:28.255Z,3.00
2019-01-21T19:38:57.772Z,3.03
2019-01-21T19:41:27.174Z,3.00
2019-01-21T19:43:57.183Z,2.97
2019-01-21T19:46:26.942Z,2.98
2019-01-21T19:48:56.861Z,3.06
2019-01-21T19:51:26.746Z,3.10
2019-01-21T19:53:57.169Z,3.07
2019-01-21T19:56:26.773Z,3.02
2019-01-21T19:58:56.707Z,3.01
2019-01-21T20:01:26.697Z,2.95
2019-01-21T20:03:57.011Z,2.85
2019-01-21T20:06:26.716Z,2.95
2019-01-21T20:08:57.095Z,2.82
2019-01-21T20:11:26.664Z,2.76
2019-01-21T20:13:56.714Z,2.79
2019-01-21T20:16:27.045Z,2.67
2019-01-21T20:18:56.710Z,2.56
2019-01-21T20:21:26.686Z,2.41
2019-01-21T20:23:56.755Z,2.44
2019-01-21T20:26:26.619Z,2.41
2019-01-21T20:28:57.790Z,2.47
2019-01-21T20:31:29.245Z,2.51
2019-01-21T20:33:58.714Z,2.50
2019-01-21T20:36:29.651Z,2.54
2019-01-21T20:38:59.192Z,2.48
2019-01-21T20:41:30.025Z,2.51
2019-01-21T20:44:00.882Z,2.56
2019-01-21T20:46:31.473Z,2.51
2019-01-21T20:49:00.962Z,2.50
2019-01-21T20:51:30.361Z,2.53
2019-01-21T20:53:59.968Z,2.55
2019-01-21T20:56:32.745Z,2.49
2019-01-21T20:59:02.143Z,2.53
2019-01-21T21:01:32.262Z,2.47
2019-01-21T21:04:01.857Z,2.39
2019-01-21T21:06:32.749Z,2.39
2019-01-21T21:09:02.531Z,2.40
2019-01-21T21:11:33.872Z,2.40
2019-01-21T21:14:03.346Z,2.42
2019-01-21T21:16:34.509Z,2.34
2019-01-21T21:19:04.629Z,2.28
2019-01-21T21:21:35.947Z,2.20
2019-01-21T21:24:05.826Z,2.27
2019-01-21T21:26:37.040Z,2.29
2019-01-21T21:29:06.523Z,2.27
2019-01-21T21:31:36.181Z,2.35
2019-01-21T21:34:08.188Z,2.26
2019-01-21T21:36:39.106Z,2.14
2019-01-21T21:39:10.476Z,2.25
2019-01-21T21:41:40.011Z,2.27
2019-01-21T21:44:09.726Z,2.23
2019-01-21T21:46:42.334Z,2.21
2019-01-21T21:49:11.997Z,2.31
2019-01-21T21:51:46.509Z,2.29
2019-01-21T21:54:16.823Z,2.18
2019-01-21T21:56:47.581Z,2.16
2019-01-21T21:59:17.268Z,2.29
2019-01-21T22:01:48.935Z,2.29
2019-01-21T22:04:18.519Z,2.22
2019-01-21T22:06:48.123Z,2.34
2019-01-21T22:09:19.755Z,2.26
2019-01-21T22:11:49.432Z,2.28
2019-01-21T22:14:18.936Z,2.32
2019-01-21T22:16:48.623Z,2.33
2019-01-21T22:19:18.171Z,2.36
2019-01-21T22:21:47.850Z,2.35
2019-01-21T22:24:18.346Z,2.34
2019-01-21T22:26:47.879Z,2.34
2019-01-21T22:29:17.231Z,2.38
2019-01-21T22:31:46.962Z,2.38
2019-01-21T22:34:18.248Z,2.39
2019-01-21T22:36:47.738Z,2.32
2019-01-21T22:39:17.331Z,2.43
2019-01-21T22:41:46.847Z,2.49
2019-01-21T22:44:16.458Z,2.45
2019-01-21T22:46:46.133Z,2.48
2019-01-21T22:49:15.610Z,2.56
2019-01-21T22:51:45.135Z,2.53
2019-01-21T22:54:14.993Z,2.60
2019-01-21T22:56:44.446Z,2.62
2019-01-21T22:59:13.850Z,2.49
2019-01-21T23:01:43.538Z,2.48
2019-01-21T23:04:13.373Z,2.45
2019-01-21T23:06:42.939Z,2.57
2019-01-21T23:09:12.665Z,2.56
2019-01-21T23:11:42.110Z,2.67
2019-01-21T23:14:11.961Z,2.76
2019-01-21T23:16:41.495Z,2.86
2019-01-21T23:19:11.136Z,2.84
2019-01-21T23:21:40.539Z,2.61
2019-01-21T23:24:10.446Z,2.62
2019-01-21T23:26:40.314Z,2.55
2019-01-21T23:29:10.213Z,2.51
2019-01-21T23:31:39.934Z,2.58
2019-01-21T23:34:09.342Z,2.61
2019-01-21T23:36:38.764Z,2.64
2019-01-21T23:39:09.440Z,2.72
2019-01-21T23:41:40.506Z,2.71
2019-01-21T23:44:12.673Z,2.68
2019-01-21T23:46:42.152Z,2.80
2019-01-21T23:49:12.219Z,2.71
2019-01-21T23:51:41.619Z,2.70
2019-01-21T23:54:11.387Z,2.83
2019-01-21T23:56:40.783Z,2.95
2019-01-21T23:59:10.194Z,3.00
